createdAt,value
2019-03-31T00:00:04.860Z,975.33
2019-03-31T00:01:14.803Z,975.38
2019-03-31T00:02:24.730Z,975.55
2019-03-31T00:03:34.650Z,975.41
2019-03-31T00:04:44.572Z,975.5
2019-03-31T00:05:54.514Z,975.6
2019-03-31T00:07:04.483Z,975.66
2019-03-31T00:08:14.438Z,975.72
2019-03-31T00:09:24.360Z,975.8
2019-03-31T00:10:34.303Z,975.73
2019-03-31T00:11:43.726Z,975.89
2019-03-31T00:12:53.654Z,975.9
2019-03-31T00:14:03.570Z,975.9
2019-03-31T00:15:13.503Z,976.01
2019-03-31T00:16:23.424Z,976.07
2019-03-31T00:17:33.341Z,976.09
2019-03-31T00:18:43.258Z,976.2
2019-03-31T00:19:53.176Z,976.29
2019-03-31T00:21:03.191Z,976.31
2019-03-31T00:22:13.120Z,976.39
2019-03-31T00:23:23.075Z,976.31
2019-03-31T00:24:33.095Z,976.46
2019-03-31T00:25:43.015Z,976.44
2019-03-31T00:26:52.963Z,976.56
2019-03-31T00:28:02.884Z,976.5
2019-03-31T00:29:12.810Z,976.55
2019-03-31T00:30:22.720Z,976.63
2019-03-31T00:31:32.394Z,976.5
2019-03-31T00:32:42.318Z,976.66
2019-03-31T00:33:52.237Z,976.64
2019-03-31T00:35:02.156Z,976.7
2019-03-31T00:36:11.841Z,976.6
2019-03-31T00:37:21.759Z,976.62
2019-03-31T00:38:31.681Z,976.72
2019-03-31T00:39:41.606Z,976.83
2019-03-31T00:40:51.523Z,976.8
2019-03-31T00:42:01.494Z,976.82
2019-03-31T00:43:11.202Z,976.86
2019-03-31T00:44:21.122Z,976.92
2019-03-31T00:45:31.043Z,976.83
2019-03-31T00:46:41.021Z,976.9
2019-03-31T00:47:50.685Z,976.94
2019-03-31T00:49:00.617Z,976.94
2019-03-31T00:50:10.539Z,977.11
2019-03-31T00:51:20.455Z,977.23
2019-03-31T00:52:30.459Z,977.09
2019-03-31T00:53:40.482Z,977.19
2019-03-31T00:54:49.893Z,977.14
2019-03-31T00:55:59.822Z,977.28
2019-03-31T00:57:09.738Z,977.18
2019-03-31T00:58:19.710Z,977.21
2019-03-31T00:59:29.779Z,977.27
2019-03-31T01:00:39.700Z,977.13
2019-03-31T01:01:49.633Z,977.2
2019-03-31T01:02:59.552Z,977.16
2019-03-31T01:04:09.472Z,977.32
2019-03-31T01:05:19.133Z,977.29
2019-03-31T01:06:29.063Z,977.32
2019-03-31T01:07:38.981Z,977.37
2019-03-31T01:08:48.900Z,977.46
2019-03-31T01:09:58.822Z,977.52
2019-03-31T01:11:08.766Z,977.53
2019-03-31T01:12:18.705Z,977.6
2019-03-31T01:13:28.621Z,977.52
2019-03-31T01:14:38.543Z,977.47
2019-03-31T01:15:48.463Z,977.65
2019-03-31T01:16:58.433Z,977.6
2019-03-31T01:18:08.363Z,977.72
2019-03-31T01:19:18.045Z,977.87
2019-03-31T01:20:27.974Z,977.79
2019-03-31T01:21:37.897Z,977.83
2019-03-31T01:22:47.863Z,977.89
2019-03-31T01:23:57.779Z,977.85
2019-03-31T01:25:07.699Z,977.94
2019-03-31T01:26:17.616Z,977.91
2019-03-31T01:27:27.537Z,977.96
2019-03-31T01:28:37.565Z,978.04
2019-03-31T01:29:47.482Z,977.98
2019-03-31T01:30:57.396Z,978.03
2019-03-31T01:32:07.321Z,978.08
2019-03-31T01:33:17.252Z,978.08
2019-03-31T01:34:27.173Z,978.12
2019-03-31T01:35:37.089Z,978.19
2019-03-31T01:36:47.017Z,978.2
2019-03-31T01:37:56.937Z,978.25
2019-03-31T01:39:06.853Z,978.31
2019-03-31T01:40:16.855Z,978.35
2019-03-31T01:41:26.770Z,978.41
2019-03-31T01:42:36.758Z,978.44
2019-03-31T01:43:46.689Z,978.52
2019-03-31T01:44:56.606Z,978.55
2019-03-31T01:46:06.526Z,978.53
2019-03-31T01:47:16.460Z,978.58
2019-03-31T01:48:26.459Z,978.6
2019-03-31T01:49:36.436Z,978.62
2019-03-31T01:50:46.366Z,978.62
2019-03-31T01:51:56.373Z,978.61
2019-03-31T01:53:06.302Z,978.71
2019-03-31T01:54:16.219Z,978.72
2019-03-31T01:55:26.151Z,978.73
2019-03-31T01:56:36.072Z,978.79
2019-03-31T01:57:47.763Z,978.74
2019-03-31T01:58:57.678Z,978.73
2019-03-31T02:00:07.597Z,978.78
2019-03-31T02:01:17.522Z,978.77
2019-03-31T02:02:27.467Z,978.79
2019-03-31T02:03:37.410Z,978.84
2019-03-31T02:04:47.094Z,978.85
2019-03-31T02:05:57.015Z,978.83
2019-03-31T02:07:06.682Z,978.88
2019-03-31T02:08:16.602Z,978.9
2019-03-31T02:09:26.272Z,978.88
2019-03-31T02:10:36.187Z,978.93
2019-03-31T02:11:46.124Z,978.94
2019-03-31T02:12:56.039Z,978.99
2019-03-31T02:14:05.957Z,978.99
2019-03-31T02:15:16.043Z,979.02
2019-03-31T02:16:25.993Z,979.03
2019-03-31T02:17:35.987Z,979.06
2019-03-31T02:18:45.913Z,979.08
2019-03-31T02:19:55.835Z,979.09
2019-03-31T02:21:05.760Z,979.23
2019-03-31T02:22:15.688Z,979.1
2019-03-31T02:23:25.614Z,979.18
2019-03-31T02:24:35.541Z,979.14
2019-03-31T02:25:45.503Z,979.17
2019-03-31T02:26:55.529Z,979.18
2019-03-31T02:28:05.462Z,979.19
2019-03-31T02:29:15.141Z,979.18
2019-03-31T02:30:25.062Z,979.26
2019-03-31T02:31:35.080Z,979.26
2019-03-31T02:32:45.140Z,979.26
2019-03-31T02:33:55.081Z,979.31
2019-03-31T02:35:05.030Z,979.29
2019-03-31T02:36:15.087Z,979.31
2019-03-31T02:37:25.060Z,979.38
2019-03-31T02:38:35.088Z,979.49
2019-03-31T02:39:45.027Z,979.5
2019-03-31T02:40:54.981Z,979.46
2019-03-31T02:42:04.935Z,979.47
2019-03-31T02:43:14.869Z,979.53
2019-03-31T02:44:24.839Z,979.61
2019-03-31T02:45:34.781Z,979.59
2019-03-31T02:46:44.760Z,979.59
2019-03-31T02:47:54.743Z,979.61
2019-03-31T02:49:04.676Z,979.68
2019-03-31T02:50:14.729Z,979.61
2019-03-31T02:51:24.664Z,979.65
2019-03-31T02:52:34.730Z,979.76
2019-03-31T02:53:44.665Z,979.76
2019-03-31T02:54:54.613Z,979.86
2019-03-31T02:56:04.549Z,979.88
2019-03-31T02:57:14.495Z,979.9
2019-03-31T02:58:24.428Z,979.89
2019-03-31T02:59:34.385Z,979.91
2019-03-31T03:00:44.315Z,979.93
2019-03-31T03:01:54.369Z,979.89
2019-03-31T03:03:04.302Z,979.94
2019-03-31T03:04:14.225Z,979.85
2019-03-31T03:05:23.926Z,979.81
2019-03-31T03:06:33.863Z,979.97
2019-03-31T03:07:43.858Z,980.08
2019-03-31T03:08:53.836Z,979.9
2019-03-31T03:10:03.770Z,980.19
2019-03-31T03:11:13.736Z,980.03
2019-03-31T03:12:23.672Z,980.12
2019-03-31T03:13:33.602Z,980.15
2019-03-31T03:14:43.536Z,980.08
2019-03-31T03:15:53.480Z,980.13
2019-03-31T03:17:03.421Z,980.14
2019-03-31T03:18:13.366Z,980.06
2019-03-31T03:19:23.300Z,979.95
2019-03-31T03:20:33.253Z,980.11
2019-03-31T03:21:43.182Z,979.98
2019-03-31T03:22:53.123Z,979.87
2019-03-31T03:24:03.059Z,980.08
2019-03-31T03:25:13.047Z,980.09
2019-03-31T03:26:22.982Z,980.18
2019-03-31T03:27:32.933Z,980.23
2019-03-31T03:28:42.870Z,980.1
2019-03-31T03:29:52.856Z,980.24
2019-03-31T03:31:03.087Z,980.18
2019-03-31T03:32:23.016Z,980.58
2019-03-31T03:33:32.994Z,980.33
2019-03-31T03:34:42.762Z,980.37
2019-03-31T03:35:52.745Z,980.14
2019-03-31T03:37:02.724Z,980.43
2019-03-31T03:38:12.410Z,980.46
2019-03-31T03:39:22.337Z,980.42
2019-03-31T03:40:32.261Z,980.54
2019-03-31T03:41:42.186Z,980.45
2019-03-31T03:42:51.919Z,980.52
2019-03-31T03:44:02.429Z,980.44
2019-03-31T03:45:12.733Z,980.5
2019-03-31T03:46:22.801Z,980.68
2019-03-31T03:47:32.877Z,980.66
2019-03-31T03:48:42.807Z,980.72
2019-03-31T03:49:52.967Z,980.57
2019-03-31T03:51:03.403Z,980.72
2019-03-31T03:52:13.372Z,980.83
2019-03-31T03:53:23.319Z,980.93
2019-03-31T03:54:33.279Z,980.98
2019-03-31T03:55:42.954Z,981.03
2019-03-31T03:56:52.893Z,980.98
2019-03-31T03:58:02.581Z,980.99
2019-03-31T03:59:12.516Z,981.06
2019-03-31T04:00:22.371Z,981.09
2019-03-31T04:01:32.337Z,981.16
2019-03-31T04:02:42.268Z,981.21
2019-03-31T04:03:52.227Z,981.2
2019-03-31T04:05:02.205Z,981.21
2019-03-31T04:06:12.285Z,981.28
2019-03-31T04:07:21.978Z,981.21
2019-03-31T04:08:31.920Z,981.26
2019-03-31T04:09:41.857Z,981.28
2019-03-31T04:10:51.790Z,981.29
2019-03-31T04:12:01.740Z,981.23
2019-03-31T04:13:11.759Z,981.18
2019-03-31T04:14:21.724Z,981.26
2019-03-31T04:15:31.668Z,981.21
2019-03-31T04:16:41.623Z,981.31
2019-03-31T04:17:51.643Z,981.39
2019-03-31T04:19:01.568Z,981.29
2019-03-31T04:20:11.526Z,981.04
2019-03-31T04:21:21.477Z,981.23
2019-03-31T04:22:31.414Z,981.22
2019-03-31T04:23:41.362Z,981.29
2019-03-31T04:24:51.417Z,981.25
2019-03-31T04:26:01.345Z,981.34
2019-03-31T04:27:11.030Z,981.22
2019-03-31T04:28:24.199Z,981.32
2019-03-31T04:29:34.191Z,981.45
2019-03-31T04:30:44.124Z,981.5
2019-03-31T04:31:54.168Z,981.45
2019-03-31T04:33:04.158Z,981.55
2019-03-31T04:34:14.114Z,981.6
2019-03-31T04:35:24.195Z,981.6
2019-03-31T04:36:34.151Z,981.64
2019-03-31T04:37:44.183Z,981.64
2019-03-31T04:38:54.144Z,981.65
2019-03-31T04:40:07.631Z,981.66
2019-03-31T04:41:17.565Z,981.71
2019-03-31T04:42:27.512Z,981.8
2019-03-31T04:43:37.429Z,981.82
2019-03-31T04:44:47.119Z,981.83
2019-03-31T04:45:57.052Z,981.92
2019-03-31T04:47:07.142Z,981.95
2019-03-31T04:48:16.829Z,981.85
2019-03-31T04:49:26.775Z,981.91
2019-03-31T04:50:36.713Z,981.93
2019-03-31T04:51:46.634Z,981.86
2019-03-31T04:52:56.602Z,981.95
2019-03-31T04:54:06.527Z,981.97
2019-03-31T04:55:16.466Z,982.23
2019-03-31T04:56:26.387Z,982.09
2019-03-31T04:57:36.323Z,982.11
2019-03-31T04:58:46.245Z,982.08
2019-03-31T04:59:56.164Z,982.11
2019-03-31T05:01:06.086Z,982.13
2019-03-31T05:02:16.012Z,982.17
2019-03-31T05:03:29.759Z,982.21
2019-03-31T05:04:39.811Z,982.25
2019-03-31T05:05:49.736Z,982.18
2019-03-31T05:06:59.682Z,982.23
2019-03-31T05:08:09.696Z,982.3
2019-03-31T05:09:19.614Z,982.27
2019-03-31T05:10:29.628Z,982.29
2019-03-31T05:11:39.547Z,982.3
2019-03-31T05:12:49.474Z,982.28
2019-03-31T05:13:59.395Z,982.32
2019-03-31T05:15:09.319Z,982.32
2019-03-31T05:16:19.254Z,982.35
2019-03-31T05:17:29.169Z,982.37
2019-03-31T05:18:41.014Z,982.44
2019-03-31T05:19:50.936Z,982.48
2019-03-31T05:21:00.928Z,982.52
2019-03-31T05:22:10.850Z,982.53
2019-03-31T05:23:20.517Z,982.55
2019-03-31T05:24:30.439Z,982.55
2019-03-31T05:25:40.356Z,982.56
2019-03-31T05:26:50.277Z,982.65
2019-03-31T05:28:00.243Z,982.64
2019-03-31T05:29:10.205Z,982.67
2019-03-31T05:30:20.139Z,982.81
2019-03-31T05:31:30.085Z,982.71
2019-03-31T05:32:39.870Z,982.74
2019-03-31T05:33:49.898Z,982.71
2019-03-31T05:34:59.564Z,982.75
2019-03-31T05:36:09.494Z,982.77
2019-03-31T05:37:19.492Z,982.82
2019-03-31T05:38:29.412Z,982.78
2019-03-31T05:39:39.464Z,982.84
2019-03-31T05:40:49.412Z,982.79
2019-03-31T05:41:59.098Z,982.78
2019-03-31T05:43:09.017Z,982.81
2019-03-31T05:44:18.934Z,982.85
2019-03-31T05:45:28.903Z,982.88
2019-03-31T05:46:38.830Z,982.89
2019-03-31T05:47:48.754Z,982.95
2019-03-31T05:48:58.771Z,983
2019-03-31T05:50:08.704Z,983.01
2019-03-31T05:51:18.627Z,983.05
2019-03-31T05:52:28.541Z,983.02
2019-03-31T05:53:38.532Z,983.06
2019-03-31T05:54:48.448Z,983.04
2019-03-31T05:55:58.365Z,982.97
2019-03-31T05:57:08.364Z,983
2019-03-31T05:58:17.790Z,983.05
2019-03-31T05:59:27.723Z,983.06
2019-03-31T06:00:37.423Z,983.11
2019-03-31T06:01:47.348Z,983.11
2019-03-31T06:02:57.399Z,983.14
2019-03-31T06:04:07.315Z,983.19
2019-03-31T06:05:17.229Z,983.14
2019-03-31T06:06:27.150Z,983.2
2019-03-31T06:07:39.988Z,983.26
2019-03-31T06:08:50.010Z,983.24
2019-03-31T06:09:59.926Z,983.26
2019-03-31T06:11:09.847Z,983.29
2019-03-31T06:12:19.773Z,983.3
2019-03-31T06:13:29.694Z,983.35
2019-03-31T06:14:39.358Z,983.38
2019-03-31T06:15:49.277Z,983.44
2019-03-31T06:16:58.942Z,983.42
2019-03-31T06:18:08.856Z,983.49
2019-03-31T06:19:18.772Z,983.44
2019-03-31T06:20:28.742Z,983.5
2019-03-31T06:21:38.663Z,983.5
2019-03-31T06:22:48.582Z,983.59
2019-03-31T06:23:58.503Z,983.64
2019-03-31T06:25:08.432Z,983.67
2019-03-31T06:26:18.331Z,983.74
2019-03-31T06:27:28.243Z,983.76
2019-03-31T06:28:38.161Z,983.75
2019-03-31T06:29:48.090Z,983.82
2019-03-31T06:30:58.003Z,983.82
2019-03-31T06:32:07.918Z,983.87
2019-03-31T06:33:17.857Z,983.87
2019-03-31T06:34:27.780Z,983.88
2019-03-31T06:35:52.020Z,983.89
2019-03-31T06:37:01.689Z,983.94
2019-03-31T06:38:11.716Z,983.93
2019-03-31T06:39:21.635Z,983.92
2019-03-31T06:40:34.748Z,983.92
2019-03-31T06:41:44.676Z,983.92
2019-03-31T06:42:54.442Z,983.9
2019-03-31T06:44:04.357Z,983.99
2019-03-31T06:45:14.287Z,984.02
2019-03-31T06:46:24.225Z,984.01
2019-03-31T06:47:34.147Z,984.04
2019-03-31T06:48:43.816Z,984.07
2019-03-31T06:49:53.732Z,984.13
2019-03-31T06:51:03.650Z,984.17
2019-03-31T06:52:13.319Z,984.17
2019-03-31T06:53:23.238Z,984.17
2019-03-31T06:54:33.211Z,984.2
2019-03-31T06:55:43.138Z,984.25
2019-03-31T06:56:53.063Z,984.28
2019-03-31T06:58:02.995Z,984.32
2019-03-31T06:59:12.911Z,984.32
2019-03-31T07:00:22.833Z,984.37
2019-03-31T07:01:32.758Z,984.39
2019-03-31T07:02:42.685Z,984.44
2019-03-31T07:03:52.602Z,984.45
2019-03-31T07:05:02.528Z,984.43
2019-03-31T07:06:12.543Z,984.51
2019-03-31T07:07:23.898Z,984.52
2019-03-31T07:08:33.751Z,984.53
2019-03-31T07:09:43.668Z,984.53
2019-03-31T07:10:53.598Z,984.5
2019-03-31T07:12:03.627Z,984.58
2019-03-31T07:13:13.548Z,984.6
2019-03-31T07:14:23.471Z,984.61
2019-03-31T07:15:33.404Z,984.62
2019-03-31T07:16:43.341Z,984.64
2019-03-31T07:17:53.108Z,984.58
2019-03-31T07:19:03.025Z,984.61
2019-03-31T07:20:12.975Z,984.59
2019-03-31T07:21:22.957Z,984.66
2019-03-31T07:22:32.876Z,984.61
2019-03-31T07:23:42.803Z,984.65
2019-03-31T07:24:52.725Z,984.69
2019-03-31T07:26:02.639Z,984.74
2019-03-31T07:27:12.557Z,984.74
2019-03-31T07:28:22.476Z,984.77
2019-03-31T07:29:32.280Z,984.7
2019-03-31T07:30:41.947Z,984.85
2019-03-31T07:31:51.872Z,984.84
2019-03-31T07:33:01.790Z,984.9
2019-03-31T07:34:11.718Z,984.87
2019-03-31T07:35:21.740Z,984.87
2019-03-31T07:36:31.663Z,984.87
2019-03-31T07:37:47.351Z,984.89
2019-03-31T07:38:57.813Z,984.91
2019-03-31T07:40:08.651Z,984.89
2019-03-31T07:41:20.181Z,985.02
2019-03-31T07:42:31.590Z,985
2019-03-31T07:43:41.655Z,985.06
2019-03-31T07:44:51.573Z,985.18
2019-03-31T07:46:01.497Z,985.1
2019-03-31T07:47:11.468Z,984.92
2019-03-31T07:48:21.395Z,985.02
2019-03-31T07:49:31.320Z,985.09
2019-03-31T07:50:41.341Z,985.06
2019-03-31T07:51:51.271Z,985.17
2019-03-31T07:53:01.199Z,985.01
2019-03-31T07:54:11.133Z,985.13
2019-03-31T07:55:21.054Z,985.04
2019-03-31T07:56:30.971Z,985.1
2019-03-31T07:57:40.995Z,985.16
2019-03-31T07:58:50.969Z,985.16
2019-03-31T08:00:01.222Z,985.18
2019-03-31T08:01:11.290Z,985.12
2019-03-31T08:02:21.222Z,985.19
2019-03-31T08:03:31.139Z,985.26
2019-03-31T08:04:41.171Z,985.26
2019-03-31T08:05:51.084Z,985.26
2019-03-31T08:07:01.001Z,985.26
2019-03-31T08:08:10.929Z,985.51
2019-03-31T08:09:20.846Z,985.37
2019-03-31T08:10:30.878Z,985.4
2019-03-31T08:11:40.818Z,985.35
2019-03-31T08:12:50.736Z,985.31
2019-03-31T08:14:00.665Z,985.3
2019-03-31T08:15:10.586Z,985.38
2019-03-31T08:16:20.531Z,985.38
2019-03-31T08:17:30.476Z,985.39
2019-03-31T08:18:43.239Z,985.34
2019-03-31T08:19:53.164Z,985.37
2019-03-31T08:21:03.154Z,985.33
2019-03-31T08:22:13.125Z,985.32
2019-03-31T08:23:22.795Z,985.4
2019-03-31T08:24:32.473Z,985.4
2019-03-31T08:25:42.403Z,985.47
2019-03-31T08:26:52.335Z,985.47
2019-03-31T08:28:05.972Z,985.38
2019-03-31T08:29:15.889Z,985.41
2019-03-31T08:30:25.815Z,985.47
2019-03-31T08:31:35.737Z,985.52
2019-03-31T08:32:45.658Z,985.41
2019-03-31T08:33:55.569Z,985.59
2019-03-31T08:35:05.511Z,985.61
2019-03-31T08:36:15.434Z,985.59
2019-03-31T08:37:25.353Z,985.64
2019-03-31T08:38:35.278Z,985.7
2019-03-31T08:39:45.062Z,985.64
2019-03-31T08:40:54.997Z,985.71
2019-03-31T08:42:04.922Z,985.74
2019-03-31T08:43:14.855Z,985.77
2019-03-31T08:44:24.787Z,985.78
2019-03-31T08:45:34.705Z,985.82
2019-03-31T08:46:44.616Z,985.9
2019-03-31T08:47:54.539Z,985.94
2019-03-31T08:49:04.466Z,985.88
2019-03-31T08:50:14.381Z,985.9
2019-03-31T08:51:24.375Z,985.99
2019-03-31T08:52:34.294Z,986
2019-03-31T08:53:44.218Z,986.02
2019-03-31T08:54:54.133Z,986.02
2019-03-31T08:56:04.106Z,986.03
2019-03-31T08:57:16.432Z,986.16
2019-03-31T08:58:26.350Z,986.21
2019-03-31T08:59:36.263Z,986.25
2019-03-31T09:00:46.190Z,986.21
2019-03-31T09:01:56.121Z,986.23
2019-03-31T09:03:08.616Z,986.31
2019-03-31T09:04:18.532Z,986.3
2019-03-31T09:05:28.465Z,986.28
2019-03-31T09:06:38.385Z,986.37
2019-03-31T09:07:48.332Z,986.39
2019-03-31T09:08:58.356Z,986.32
2019-03-31T09:10:08.276Z,986.37
2019-03-31T09:11:18.212Z,986.44
2019-03-31T09:12:28.129Z,986.39
2019-03-31T09:13:38.047Z,986.2
2019-03-31T09:14:48.019Z,986.41
2019-03-31T09:15:57.947Z,986.63
2019-03-31T09:17:07.883Z,986.49
2019-03-31T09:18:17.796Z,986.49
2019-03-31T09:19:27.800Z,986.49
2019-03-31T09:20:37.836Z,986.49
2019-03-31T09:21:47.766Z,986.5
2019-03-31T09:22:57.687Z,986.54
2019-03-31T09:24:07.608Z,986.57
2019-03-31T09:25:17.291Z,986.63
2019-03-31T09:26:27.366Z,986.59
2019-03-31T09:27:37.286Z,986.52
2019-03-31T09:28:47.216Z,986.6
2019-03-31T09:29:57.143Z,986.65
2019-03-31T09:31:07.170Z,986.65
2019-03-31T09:32:17.145Z,986.63
2019-03-31T09:33:27.067Z,986.67
2019-03-31T09:34:39.956Z,986.75
2019-03-31T09:35:49.877Z,986.78
2019-03-31T09:36:59.861Z,986.76
2019-03-31T09:38:09.886Z,986.77
2019-03-31T09:39:19.810Z,986.81
2019-03-31T09:40:29.731Z,986.83
2019-03-31T09:41:39.666Z,986.78
2019-03-31T09:42:49.582Z,986.77
2019-03-31T09:43:59.645Z,986.81
2019-03-31T09:45:09.567Z,986.83
2019-03-31T09:46:19.502Z,986.83
2019-03-31T09:47:29.474Z,986.87
2019-03-31T09:48:39.393Z,986.82
2019-03-31T09:49:49.366Z,986.95
2019-03-31T09:50:59.037Z,986.87
2019-03-31T09:52:08.967Z,986.75
2019-03-31T09:53:18.898Z,986.77
2019-03-31T09:54:28.821Z,986.89
2019-03-31T09:55:38.989Z,986.99
2019-03-31T09:56:48.907Z,986.95
2019-03-31T09:57:58.823Z,986.97
2019-03-31T09:59:08.762Z,986.99
2019-03-31T10:00:18.683Z,987
2019-03-31T10:01:28.611Z,986.92
2019-03-31T10:02:38.537Z,987.06
2019-03-31T10:03:48.464Z,987.07
2019-03-31T10:04:58.380Z,986.97
2019-03-31T10:06:10.849Z,986.91
2019-03-31T10:07:34.864Z,987
2019-03-31T10:08:44.785Z,986.92
2019-03-31T10:09:54.704Z,987.12
2019-03-31T10:11:04.637Z,986.98
2019-03-31T10:12:14.417Z,987.08
2019-03-31T10:13:24.367Z,987.06
2019-03-31T10:14:34.303Z,987.08
2019-03-31T10:15:44.229Z,987.04
2019-03-31T10:16:54.149Z,986.99
2019-03-31T10:18:04.070Z,987
2019-03-31T10:19:13.995Z,987.03
2019-03-31T10:20:23.930Z,987.01
2019-03-31T10:21:36.792Z,986.98
2019-03-31T10:22:46.722Z,986.92
2019-03-31T10:23:56.692Z,987.01
2019-03-31T10:25:06.609Z,987.25
2019-03-31T10:26:30.916Z,987.1
2019-03-31T10:27:41.032Z,987.17
2019-03-31T10:28:50.953Z,987.11
2019-03-31T10:30:00.872Z,987.14
2019-03-31T10:31:10.800Z,987.13
2019-03-31T10:32:20.732Z,987.2
2019-03-31T10:33:30.674Z,987.21
2019-03-31T10:34:40.608Z,987.22
2019-03-31T10:35:50.529Z,987.3
2019-03-31T10:37:00.503Z,987.2
2019-03-31T10:38:10.428Z,987.22
2019-03-31T10:39:20.349Z,987.21
2019-03-31T10:40:30.377Z,987.12
2019-03-31T10:41:40.335Z,987.19
2019-03-31T10:42:50.259Z,987.24
2019-03-31T10:44:00.188Z,987.39
2019-03-31T10:45:10.109Z,987.17
2019-03-31T10:46:20.027Z,987.64
2019-03-31T10:47:29.957Z,987.35
2019-03-31T10:48:39.873Z,987.33
2019-03-31T10:49:49.790Z,987.34
2019-03-31T10:50:59.710Z,987.45
2019-03-31T10:52:09.629Z,987.53
2019-03-31T10:53:19.548Z,987.35
2019-03-31T10:54:29.317Z,987.36
2019-03-31T10:55:39.251Z,987.48
2019-03-31T10:56:49.175Z,987.43
2019-03-31T10:57:59.205Z,987.47
2019-03-31T10:59:09.129Z,987.47
2019-03-31T11:00:19.062Z,987.49
2019-03-31T11:01:28.991Z,987.58
2019-03-31T11:02:38.922Z,987.47
2019-03-31T11:03:48.850Z,987.53
2019-03-31T11:04:58.835Z,987.7
2019-03-31T11:06:08.792Z,987.59
2019-03-31T11:07:18.733Z,987.47
2019-03-31T11:08:28.414Z,987.58
2019-03-31T11:09:38.331Z,987.56
2019-03-31T11:10:48.258Z,987.75
2019-03-31T11:11:58.246Z,987.67
2019-03-31T11:13:08.171Z,987.62
2019-03-31T11:14:18.099Z,987.74
2019-03-31T11:15:28.083Z,987.74
2019-03-31T11:16:38.004Z,987.8
2019-03-31T11:17:47.937Z,987.95
2019-03-31T11:18:57.922Z,987.97
2019-03-31T11:20:07.853Z,988.05
2019-03-31T11:21:17.884Z,987.92
2019-03-31T11:22:27.810Z,987.99
2019-03-31T11:23:37.485Z,987.91
2019-03-31T11:24:47.486Z,987.98
2019-03-31T11:25:57.486Z,987.98
2019-03-31T11:27:07.417Z,987.82
2019-03-31T11:28:17.344Z,988.09
2019-03-31T11:29:27.020Z,988.04
2019-03-31T11:30:36.945Z,988.08
2019-03-31T11:31:46.973Z,988.15
2019-03-31T11:32:57.113Z,988.09
2019-03-31T11:34:10.233Z,988.24
2019-03-31T11:35:22.597Z,988.07
2019-03-31T11:36:32.273Z,988.19
2019-03-31T11:37:42.199Z,988.16
2019-03-31T11:38:52.230Z,988.13
2019-03-31T11:40:02.166Z,988.09
2019-03-31T11:41:12.099Z,988.3
2019-03-31T11:42:22.026Z,988.08
2019-03-31T11:43:31.967Z,988.17
2019-03-31T11:44:41.977Z,988.17
2019-03-31T11:45:51.908Z,988.27
2019-03-31T11:47:01.917Z,988.61
2019-03-31T11:48:11.855Z,988.23
2019-03-31T11:49:21.823Z,988.26
2019-03-31T11:50:31.811Z,988.19
2019-03-31T11:51:41.747Z,988.31
2019-03-31T11:52:51.689Z,988.32
2019-03-31T11:54:01.375Z,988.27
2019-03-31T11:55:11.309Z,988.28
2019-03-31T11:56:20.989Z,988.23
2019-03-31T11:57:30.925Z,988.25
2019-03-31T11:58:40.873Z,988.27
2019-03-31T11:59:50.819Z,988.06
2019-03-31T12:01:00.872Z,988.27
2019-03-31T12:02:10.967Z,988.24
2019-03-31T12:03:34.431Z,988.21
2019-03-31T12:04:44.387Z,988.35
2019-03-31T12:05:54.331Z,988.32
2019-03-31T12:07:04.272Z,988.41
2019-03-31T12:08:27.740Z,988.34
2019-03-31T12:09:37.676Z,988.38
2019-03-31T12:10:47.613Z,988.45
2019-03-31T12:11:57.547Z,988.45
2019-03-31T12:13:07.548Z,988.46
2019-03-31T12:14:17.480Z,988.65
2019-03-31T12:15:27.414Z,988.57
2019-03-31T12:16:37.352Z,988.6
2019-03-31T12:17:47.289Z,988.57
2019-03-31T12:18:57.349Z,988.68
2019-03-31T12:20:07.282Z,988.66
2019-03-31T12:21:17.209Z,988.67
2019-03-31T12:22:27.178Z,988.67
2019-03-31T12:23:36.923Z,988.7
2019-03-31T12:24:46.903Z,988.65
2019-03-31T12:25:56.837Z,988.61
2019-03-31T12:27:06.788Z,988.76
2019-03-31T12:28:16.728Z,988.68
2019-03-31T12:29:26.679Z,988.7
2019-03-31T12:30:36.728Z,988.92
2019-03-31T12:31:46.673Z,988.75
2019-03-31T12:32:56.605Z,988.69
2019-03-31T12:34:06.571Z,988.76
2019-03-31T12:35:16.511Z,989.01
2019-03-31T12:36:26.550Z,988.8
2019-03-31T12:37:42.440Z,988.82
2019-03-31T12:38:53.991Z,988.87
2019-03-31T12:40:04.034Z,989.02
2019-03-31T12:41:15.854Z,988.9
2019-03-31T12:42:25.846Z,989.04
2019-03-31T12:43:35.777Z,989.09
2019-03-31T12:44:45.711Z,989.01
2019-03-31T12:45:55.649Z,988.96
2019-03-31T12:47:05.679Z,988.72
2019-03-31T12:48:15.618Z,988.76
2019-03-31T12:49:25.556Z,988.83
2019-03-31T12:50:35.516Z,988.85
2019-03-31T12:51:45.485Z,989.09
2019-03-31T12:52:58.040Z,989.01
2019-03-31T12:54:08.117Z,989.01
2019-03-31T12:55:18.066Z,989.03
2019-03-31T12:56:28.004Z,989.02
2019-03-31T12:57:37.938Z,988.93
2019-03-31T12:58:47.867Z,988.92
2019-03-31T12:59:57.871Z,989.07
2019-03-31T13:01:07.714Z,989.02
2019-03-31T13:02:17.658Z,988.99
2019-03-31T13:03:27.593Z,989.15
2019-03-31T13:04:37.526Z,989.11
2019-03-31T13:05:47.562Z,989.13
2019-03-31T13:06:57.496Z,989.12
2019-03-31T13:08:07.433Z,988.99
2019-03-31T13:09:17.367Z,989.18
2019-03-31T13:10:27.056Z,989.1
2019-03-31T13:11:37.242Z,989.19
2019-03-31T13:12:50.792Z,988.98
2019-03-31T13:14:00.731Z,989.23
2019-03-31T13:15:10.663Z,989.17
2019-03-31T13:16:20.610Z,988.96
2019-03-31T13:17:30.402Z,989.03
2019-03-31T13:18:40.340Z,989.22
2019-03-31T13:19:50.363Z,989.33
2019-03-31T13:21:00.052Z,989.22
2019-03-31T13:22:10.002Z,989.3
2019-03-31T13:23:19.939Z,989.32
2019-03-31T13:24:29.874Z,989.35
2019-03-31T13:25:39.812Z,989.2
2019-03-31T13:26:49.748Z,989.37
2019-03-31T13:27:59.685Z,989.33
2019-03-31T13:29:13.201Z,989.31
2019-03-31T13:30:23.137Z,989.38
2019-03-31T13:31:32.832Z,989.18
2019-03-31T13:32:42.764Z,989.32
2019-03-31T13:33:52.731Z,989.33
2019-03-31T13:35:02.713Z,989.37
2019-03-31T13:36:15.934Z,989.43
2019-03-31T13:37:25.878Z,989.46
2019-03-31T13:38:35.561Z,989.41
2019-03-31T13:39:45.494Z,989.26
2019-03-31T13:40:55.533Z,989.37
2019-03-31T13:42:05.469Z,989.4
2019-03-31T13:43:15.400Z,989.33
2019-03-31T13:44:25.339Z,989.31
2019-03-31T13:45:35.304Z,989.53
2019-03-31T13:46:45.345Z,989.37
2019-03-31T13:47:58.469Z,989.4
2019-03-31T13:49:08.601Z,989.37
2019-03-31T13:50:18.531Z,989.75
2019-03-31T13:51:28.542Z,989.34
2019-03-31T13:52:38.576Z,989.29
2019-03-31T13:53:48.507Z,989.45
2019-03-31T13:54:58.435Z,989.41
2019-03-31T13:56:08.365Z,989.41
2019-03-31T13:57:21.624Z,989.35
2019-03-31T13:58:36.466Z,989.41
2019-03-31T13:59:55.420Z,989.47
2019-03-31T14:01:05.725Z,989.55
2019-03-31T14:02:15.554Z,989.6
2019-03-31T14:03:25.505Z,989.46
2019-03-31T14:04:37.037Z,989.41
2019-03-31T14:05:59.545Z,989.44
2019-03-31T14:07:09.474Z,989.41
2019-03-31T14:08:25.315Z,989.51
2019-03-31T14:09:35.836Z,989.79
2019-03-31T14:10:45.769Z,989.77
2019-03-31T14:11:55.698Z,989.76
2019-03-31T14:13:05.626Z,989.77
2019-03-31T14:14:15.550Z,989.82
2019-03-31T14:15:25.603Z,989.73
2019-03-31T14:16:35.527Z,989.88
2019-03-31T14:17:45.454Z,989.82
2019-03-31T14:18:55.395Z,989.74
2019-03-31T14:20:05.327Z,989.84
2019-03-31T14:21:15.365Z,989.98
2019-03-31T14:22:25.299Z,989.92
2019-03-31T14:23:35.228Z,990.11
2019-03-31T14:24:46.837Z,990.19
2019-03-31T14:25:56.788Z,990.57
2019-03-31T14:27:06.815Z,990.7
2019-03-31T14:28:16.503Z,990.45
2019-03-31T14:29:26.508Z,990.51
2019-03-31T14:30:36.437Z,990.69
2019-03-31T14:31:46.373Z,990.65
2019-03-31T14:32:59.663Z,990.57
2019-03-31T14:34:09.600Z,990.82
2019-03-31T14:35:19.547Z,990.82
2019-03-31T14:36:29.494Z,990.91
2019-03-31T14:37:39.485Z,990.84
2019-03-31T14:38:49.424Z,990.87